sensor_id;sensor_type;location;lat;lon;timestamp;P1;durP1;ratioP1;P2;durP2;ratioP2
77814;SDS011;67002;52.124;21.210;2023-04-25T00:00:15;66.00;;;32.10;;
77814;SDS011;67002;52.124;21.210;2023-04-25T00:03:45;67.30;;;31.20;;
77814;SDS011;67002;52.124;21.210;2023-04-25T00:07:30;67.70;;;30.50;;
77814;SDS011;67002;52.124;21.210;2023-04-25T00:11:09;75.20;;;29.70;;
77814;SDS011;67002;52.124;21.210;2023-04-25T00:14:36;67.30;;;31.90;;
77814;SDS011;67002;52.124;21.210;2023-04-25T00:18:07;69.60;;;31.10;;
77814;SDS011;67002;52.124;21.210;2023-04-25T00:21:51;72.10;;;31.10;;
77814;SDS011;67002;52.124;21.210;2023-04-25T00:25:19;64.50;;;27.30;;
77814;SDS011;67002;52.124;21.210;2023-04-25T00:29:05;80.80;;;32.40;;
77814;SDS011;67002;52.124;21.210;2023-04-25T00:33:01;80.60;;;35.30;;
77814;SDS011;67002;52.124;21.210;2023-04-25T00:36:18;79.10;;;34.10;;
77814;SDS011;67002;52.124;21.210;2023-04-25T00:40:03;91.80;;;38.30;;
77814;SDS011;67002;52.124;21.210;2023-04-25T00:43:41;77.60;;;35.10;;
77814;SDS011;67002;52.124;21.210;2023-04-25T00:47:18;86.80;;;34.70;;
77814;SDS011;67002;52.124;21.210;2023-04-25T00:50:57;87.90;;;38.60;;
77814;SDS011;67002;52.124;21.210;2023-04-25T00:54:35;91.40;;;39.00;;
77814;SDS011;67002;52.124;21.210;2023-04-25T00:58:13;90.00;;;37.60;;
77814;SDS011;67002;52.124;21.210;2023-04-25T01:01:50;90.60;;;36.20;;
77814;SDS011;67002;52.124;21.210;2023-04-25T01:05:35;95.80;;;40.40;;
77814;SDS011;67002;52.124;21.210;2023-04-25T01:09:05;100.90;;;42.60;;
77814;SDS011;67002;52.124;21.210;2023-04-25T01:13:01;124.20;;;46.00;;
77814;SDS011;67002;52.124;21.210;2023-04-25T01:16:20;120.80;;;47.20;;
77814;SDS011;67002;52.124;21.210;2023-04-25T01:19:58;114.80;;;45.90;;
77814;SDS011;67002;52.124;21.210;2023-04-25T01:23:33;112.30;;;43.70;;
77814;SDS011;67002;52.124;21.210;2023-04-25T01:27:35;100.40;;;43.20;;
77814;SDS011;67002;52.124;21.210;2023-04-25T01:30:57;108.00;;;44.60;;
77814;SDS011;67002;52.124;21.210;2023-04-25T01:34:52;109.90;;;44.60;;
77814;SDS011;67002;52.124;21.210;2023-04-25T01:38:09;118.30;;;45.50;;
77814;SDS011;67002;52.124;21.210;2023-04-25T01:41:53;96.30;;;37.90;;
77814;SDS011;67002;52.124;21.210;2023-04-25T01:45:38;105.60;;;42.70;;
77814;SDS011;67002;52.124;21.210;2023-04-25T01:49:34;105.20;;;43.60;;
77814;SDS011;67002;52.124;21.210;2023-04-25T01:53:12;119.40;;;44.40;;
77814;SDS011;67002;52.124;21.210;2023-04-25T01:56:31;103.30;;;45.30;;
77814;SDS011;67002;52.124;21.210;2023-04-25T02:00:33;112.30;;;43.70;;
77814;SDS011;67002;52.124;21.210;2023-04-25T02:04:13;111.40;;;43.20;;
77814;SDS011;67002;52.124;21.210;2023-04-25T02:07:33;105.40;;;44.60;;
77814;SDS011;67002;52.124;21.210;2023-04-25T02:11:36;112.00;;;45.90;;
77814;SDS011;67002;52.124;21.210;2023-04-25T02:14:48;112.00;;;43.70;;
77814;SDS011;67002;52.124;21.210;2023-04-25T02:18:35;103.90;;;40.20;;
77814;SDS011;67002;52.124;21.210;2023-04-25T02:22:03;105.60;;;40.50;;
77814;SDS011;67002;52.124;21.210;2023-04-25T02:25:41;106.70;;;41.90;;
77814;SDS011;67002;52.124;21.210;2023-04-25T02:29:28;97.30;;;40.90;;
77814;SDS011;67002;52.124;21.210;2023-04-25T02:32:55;103.70;;;44.20;;
77814;SDS011;67002;52.124;21.210;2023-04-25T02:37:02;96.30;;;40.20;;
77814;SDS011;67002;52.124;21.210;2023-04-25T02:40:18;111.50;;;43.20;;
77814;SDS011;67002;52.124;21.210;2023-04-25T02:44:12;119.80;;;43.30;;
77814;SDS011;67002;52.124;21.210;2023-04-25T02:47:33;106.10;;;41.60;;
77814;SDS011;67002;52.124;21.210;2023-04-25T02:51:10;107.70;;;41.00;;
77814;SDS011;67002;52.124;21.210;2023-04-25T02:54:46;93.70;;;37.50;;
77814;SDS011;67002;52.124;21.210;2023-04-25T02:58:50;102.50;;;41.10;;
77814;SDS011;67002;52.124;21.210;2023-04-25T03:02:19;111.60;;;42.90;;
77814;SDS011;67002;52.124;21.210;2023-04-25T03:06:06;96.70;;;38.20;;
77814;SDS011;67002;52.124;21.210;2023-04-25T03:09:44;100.10;;;39.60;;
77814;SDS011;67002;52.124;21.210;2023-04-25T03:13:12;99.30;;;40.60;;
77814;SDS011;67002;52.124;21.210;2023-04-25T03:16:58;102.10;;;39.00;;
77814;SDS011;67002;52.124;21.210;2023-04-25T03:20:34;99.70;;;39.60;;
77814;SDS011;67002;52.124;21.210;2023-04-25T03:24:14;97.80;;;38.20;;
77814;SDS011;67002;52.124;21.210;2023-04-25T03:27:36;101.90;;;41.30;;
77814;SDS011;67002;52.124;21.210;2023-04-25T03:31:10;96.60;;;37.30;;
77814;SDS011;67002;52.124;21.210;2023-04-25T03:35:05;100.60;;;38.90;;
77814;SDS011;67002;52.124;21.210;2023-04-25T03:38:45;94.90;;;39.50;;
77814;SDS011;67002;52.124;21.210;2023-04-25T03:42:20;108.60;;;38.70;;
77814;SDS011;67002;52.124;21.210;2023-04-25T03:46:08;96.40;;;37.80;;
77814;SDS011;67002;52.124;21.210;2023-04-25T03:49:20;95.50;;;36.30;;
77814;SDS011;67002;52.124;21.210;2023-04-25T03:52:57;96.50;;;36.10;;
77814;SDS011;67002;52.124;21.210;2023-04-25T03:56:44;90.10;;;35.00;;
77814;SDS011;67002;52.124;21.210;2023-04-25T04:00:13;92.10;;;36.00;;
77814;SDS011;67002;52.124;21.210;2023-04-25T04:04:07;96.70;;;36.10;;
77814;SDS011;67002;52.124;21.210;2023-04-25T04:07:27;83.60;;;33.30;;
77814;SDS011;67002;52.124;21.210;2023-04-25T04:11:24;79.00;;;32.60;;
77814;SDS011;67002;52.124;21.210;2023-04-25T04:14:53;82.40;;;29.40;;
77814;SDS011;67002;52.124;21.210;2023-04-25T04:18:40;82.70;;;29.80;;
77814;SDS011;67002;52.124;21.210;2023-04-25T04:22:00;80.50;;;27.10;;
77814;SDS011;67002;52.124;21.210;2023-04-25T04:25:44;71.90;;;25.80;;
77814;SDS011;67002;52.124;21.210;2023-04-25T04:29:13;58.70;;;23.70;;
77814;SDS011;67002;52.124;21.210;2023-04-25T04:33:43;58.50;;;20.10;;
77814;SDS011;67002;52.124;21.210;2023-04-25T04:37:01;49.40;;;20.10;;
77814;SDS011;67002;52.124;21.210;2023-04-25T04:40:49;47.60;;;19.90;;
77814;SDS011;67002;52.124;21.210;2023-04-25T04:45:05;55.70;;;20.10;;
77814;SDS011;67002;52.124;21.210;2023-04-25T04:48:46;52.90;;;20.20;;
77814;SDS011;67002;52.124;21.210;2023-04-25T04:52:11;51.20;;;21.90;;
77814;SDS011;67002;52.124;21.210;2023-04-25T04:55:58;49.80;;;20.70;;
77814;SDS011;67002;52.124;21.210;2023-04-25T04:59:14;49.50;;;21.70;;
77814;SDS011;67002;52.124;21.210;2023-04-25T05:03:42;44.70;;;20.70;;
77814;SDS011;67002;52.124;21.210;2023-04-25T05:07:10;44.90;;;19.80;;
77814;SDS011;67002;52.124;21.210;2023-04-25T05:10:56;43.10;;;20.90;;
77814;SDS011;67002;52.124;21.210;2023-04-25T05:14:34;45.50;;;20.90;;
77814;SDS011;67002;52.124;21.210;2023-04-25T05:18:01;39.50;;;18.30;;
77814;SDS011;67002;52.124;21.210;2023-04-25T05:21:41;41.40;;;20.20;;
77814;SDS011;67002;52.124;21.210;2023-04-25T05:25:25;39.40;;;19.40;;
77814;SDS011;67002;52.124;21.210;2023-04-25T05:29:08;39.60;;;19.20;;
77814;SDS011;67002;52.124;21.210;2023-04-25T05:32:44;38.10;;;18.90;;
77814;SDS011;67002;52.124;21.210;2023-04-25T05:36:24;32.20;;;18.00;;
77814;SDS011;67002;52.124;21.210;2023-04-25T05:39:39;33.40;;;16.50;;
77814;SDS011;67002;52.124;21.210;2023-04-25T05:43:18;33.50;;;16.30;;
77814;SDS011;67002;52.124;21.210;2023-04-25T05:46:55;32.40;;;17.40;;
77814;SDS011;67002;52.124;21.210;2023-04-25T05:50:52;38.50;;;19.30;;
77814;SDS011;67002;52.124;21.210;2023-04-25T05:54:11;39.80;;;18.20;;
77814;SDS011;67002;52.124;21.210;2023-04-25T05:57:51;33.60;;;17.10;;
77814;SDS011;67002;52.124;21.210;2023-04-25T06:01:26;31.00;;;17.20;;
77814;SDS011;67002;52.124;21.210;2023-04-25T06:05:13;29.40;;;14.50;;
77814;SDS011;67002;52.124;21.210;2023-04-25T06:08:42;31.70;;;16.30;;
77814;SDS011;67002;52.124;21.210;2023-04-25T06:12:18;38.00;;;17.20;;
77814;SDS011;67002;52.124;21.210;2023-04-25T06:16:20;29.10;;;17.40;;
77814;SDS011;67002;52.124;21.210;2023-04-25T06:19:51;35.60;;;19.30;;
77814;SDS011;67002;52.124;21.210;2023-04-25T06:23:41;34.50;;;17.10;;
77814;SDS011;67002;52.124;21.210;2023-04-25T06:27:06;36.10;;;18.50;;
77814;SDS011;67002;52.124;21.210;2023-04-25T06:30:34;35.50;;;19.40;;
77814;SDS011;67002;52.124;21.210;2023-04-25T06:34:13;34.80;;;16.90;;
77814;SDS011;67002;52.124;21.210;2023-04-25T06:37:47;36.80;;;19.80;;
77814;SDS011;67002;52.124;21.210;2023-04-25T06:41:34;33.90;;;15.70;;
77814;SDS011;67002;52.124;21.210;2023-04-25T06:45:30;31.50;;;14.50;;
77814;SDS011;67002;52.124;21.210;2023-04-25T06:48:50;35.00;;;17.70;;
77814;SDS011;67002;52.124;21.210;2023-04-25T06:52:46;27.30;;;14.00;;
77814;SDS011;67002;52.124;21.210;2023-04-25T06:56:06;34.70;;;16.50;;
77814;SDS011;67002;52.124;21.210;2023-04-25T07:00:02;36.50;;;17.10;;
77814;SDS011;67002;52.124;21.210;2023-04-25T07:03:39;35.20;;;16.60;;
77814;SDS011;67002;52.124;21.210;2023-04-25T07:07:17;32.60;;;18.60;;
77814;SDS011;67002;52.124;21.210;2023-04-25T07:10:37;32.30;;;16.50;;
77814;SDS011;67002;52.124;21.210;2023-04-25T07:14:23;34.70;;;17.00;;
77814;SDS011;67002;52.124;21.210;2023-04-25T07:17:51;19.30;;;10.30;;
77814;SDS011;67002;52.124;21.210;2023-04-25T07:21:47;29.60;;;17.20;;
77814;SDS011;67002;52.124;21.210;2023-04-25T07:25:17;28.30;;;16.30;;
77814;SDS011;67002;52.124;21.210;2023-04-25T07:29:06;29.80;;;16.00;;
77814;SDS011;67002;52.124;21.210;2023-04-25T07:32:23;28.60;;;15.20;;
77814;SDS011;67002;52.124;21.210;2023-04-25T07:35:58;31.40;;;13.10;;
77814;SDS011;67002;52.124;21.210;2023-04-25T07:39:43;26.70;;;10.60;;
77814;SDS011;67002;52.124;21.210;2023-04-25T07:43:39;35.10;;;16.60;;
77814;SDS011;67002;52.124;21.210;2023-04-25T07:47:15;30.60;;;15.10;;
77814;SDS011;67002;52.124;21.210;2023-04-25T07:50:55;27.50;;;14.80;;
77814;SDS011;67002;52.124;21.210;2023-04-25T07:54:33;29.90;;;15.80;;
77814;SDS011;67002;52.124;21.210;2023-04-25T07:57:53;32.50;;;17.50;;
77814;SDS011;67002;52.124;21.210;2023-04-25T08:01:30;37.80;;;17.40;;
77814;SDS011;67002;52.124;21.210;2023-04-25T08:05:17;30.40;;;16.10;;
77814;SDS011;67002;52.124;21.210;2023-04-25T08:08:44;26.30;;;14.00;;
77814;SDS011;67002;52.124;21.210;2023-04-25T08:12:50;28.20;;;13.80;;
77814;SDS011;67002;52.124;21.210;2023-04-25T08:16:28;32.20;;;15.80;;
77814;SDS011;67002;52.124;21.210;2023-04-25T08:19:47;27.10;;;14.50;;
77814;SDS011;67002;52.124;21.210;2023-04-25T08:23:24;28.20;;;13.80;;
77814;SDS011;67002;52.124;21.210;2023-04-25T08:27:00;27.40;;;14.90;;
77814;SDS011;67002;52.124;21.210;2023-04-25T08:30:54;28.10;;;15.00;;
77814;SDS011;67002;52.124;21.210;2023-04-25T08:34:23;27.00;;;14.10;;
77814;SDS011;67002;52.124;21.210;2023-04-25T08:38:18;23.40;;;13.20;;
77814;SDS011;67002;52.124;21.210;2023-04-25T08:41:44;24.60;;;14.20;;
77814;SDS011;67002;52.124;21.210;2023-04-25T08:45:29;31.00;;;12.70;;
77814;SDS011;67002;52.124;21.210;2023-04-25T08:49:26;31.50;;;14.10;;
77814;SDS011;67002;52.124;21.210;2023-04-25T08:52:44;21.90;;;13.30;;
77814;SDS011;67002;52.124;21.210;2023-04-25T08:56:32;25.40;;;13.50;;
77814;SDS011;67002;52.124;21.210;2023-04-25T08:59:59;22.80;;;12.90;;
77814;SDS011;67002;52.124;21.210;2023-04-25T09:04:08;23.00;;;13.00;;
77814;SDS011;67002;52.124;21.210;2023-04-25T09:07:46;29.70;;;13.00;;
77814;SDS011;67002;52.124;21.210;2023-04-25T09:11:05;20.90;;;11.60;;
77814;SDS011;67002;52.124;21.210;2023-04-25T09:14:43;25.40;;;13.80;;
77814;SDS011;67002;52.124;21.210;2023-04-25T09:18:24;25.20;;;12.20;;
77814;SDS011;67002;52.124;21.210;2023-04-25T09:22:32;25.10;;;13.00;;
77814;SDS011;67002;52.124;21.210;2023-04-25T09:25:49;23.90;;;13.00;;
77814;SDS011;67002;52.124;21.210;2023-04-25T09:29:33;26.30;;;13.10;;
77814;SDS011;67002;52.124;21.210;2023-04-25T09:33:40;21.70;;;12.60;;
77814;SDS011;67002;52.124;21.210;2023-04-25T09:37:17;26.60;;;14.10;;
77814;SDS011;67002;52.124;21.210;2023-04-25T09:40:40;24.90;;;13.30;;
77814;SDS011;67002;52.124;21.210;2023-04-25T09:44:13;21.50;;;11.20;;
77814;SDS011;67002;52.124;21.210;2023-04-25T09:47:50;26.20;;;15.90;;
77814;SDS011;67002;52.124;21.210;2023-04-25T09:51:38;23.00;;;13.40;;
77814;SDS011;67002;52.124;21.210;2023-04-25T09:55:07;25.50;;;12.70;;
77814;SDS011;67002;52.124;21.210;2023-04-25T09:58:54;24.70;;;12.80;;
77814;SDS011;67002;52.124;21.210;2023-04-25T10:02:22;25.10;;;14.00;;
77814;SDS011;67002;52.124;21.210;2023-04-25T10:06:01;25.10;;;13.10;;
77814;SDS011;67002;52.124;21.210;2023-04-25T10:09:37;26.70;;;14.30;;
77814;SDS011;67002;52.124;21.210;2023-04-25T10:13:24;23.40;;;13.50;;
77814;SDS011;67002;52.124;21.210;2023-04-25T10:17:22;23.80;;;12.80;;
77814;SDS011;67002;52.124;21.210;2023-04-25T10:20:40;25.80;;;14.50;;
77814;SDS011;67002;52.124;21.210;2023-04-25T10:24:20;21.40;;;13.00;;
77814;SDS011;67002;52.124;21.210;2023-04-25T10:27:58;23.90;;;14.10;;
77814;SDS011;67002;52.124;21.210;2023-04-25T10:31:31;18.30;;;12.90;;
77814;SDS011;67002;52.124;21.210;2023-04-25T10:35:37;21.90;;;13.30;;
77814;SDS011;67002;52.124;21.210;2023-04-25T10:38:52;22.60;;;12.50;;
77814;SDS011;67002;52.124;21.210;2023-04-25T10:46:19;23.60;;;12.90;;
77814;SDS011;67002;52.124;21.210;2023-04-25T10:50:24;25.60;;;13.70;;
77814;SDS011;67002;52.124;21.210;2023-04-25T10:53:59;29.00;;;14.70;;
77814;SDS011;67002;52.124;21.210;2023-04-25T10:57:08;28.70;;;15.60;;
77814;SDS011;67002;52.124;21.210;2023-04-25T11:01:35;32.00;;;16.60;;
77814;SDS011;67002;52.124;21.210;2023-04-25T11:04:57;27.80;;;14.50;;
77814;SDS011;67002;52.124;21.210;2023-04-25T11:08:31;25.00;;;13.10;;
77814;SDS011;67002;52.124;21.210;2023-04-25T11:12:21;31.80;;;17.20;;
77814;SDS011;67002;52.124;21.210;2023-04-25T11:15:40;32.60;;;17.40;;
77814;SDS011;67002;52.124;21.210;2023-04-25T11:19:44;33.10;;;18.40;;
77814;SDS011;67002;52.124;21.210;2023-04-25T11:23:01;35.30;;;18.90;;
77814;SDS011;67002;52.124;21.210;2023-04-25T11:26:47;35.90;;;18.90;;
77814;SDS011;67002;52.124;21.210;2023-04-25T11:30:23;35.20;;;18.20;;
77814;SDS011;67002;52.124;21.210;2023-04-25T11:34:07;30.40;;;16.10;;
77814;SDS011;67002;52.124;21.210;2023-04-25T11:37:50;35.80;;;17.60;;
77814;SDS011;67002;52.124;21.210;2023-04-25T11:41:36;32.50;;;18.00;;
77814;SDS011;67002;52.124;21.210;2023-04-25T11:45:14;30.00;;;17.70;;
77814;SDS011;67002;52.124;21.210;2023-04-25T11:48:50;37.30;;;19.10;;
77814;SDS011;67002;52.124;21.210;2023-04-25T11:52:36;37.80;;;19.60;;
77814;SDS011;67002;52.124;21.210;2023-04-25T11:56:34;38.50;;;19.30;;
77814;SDS011;67002;52.124;21.210;2023-04-25T11:59:46;36.30;;;20.00;;
77814;SDS011;67002;52.124;21.210;2023-04-25T12:03:21;40.90;;;22.50;;
77814;SDS011;67002;52.124;21.210;2023-04-25T12:06:59;39.80;;;20.90;;
77814;SDS011;67002;52.124;21.210;2023-04-25T12:10:37;33.80;;;20.10;;
77814;SDS011;67002;52.124;21.210;2023-04-25T12:14:31;30.10;;;19.10;;
77814;SDS011;67002;52.124;21.210;2023-04-25T12:17:51;31.50;;;17.60;;
77814;SDS011;67002;52.124;21.210;2023-04-25T12:21:38;30.70;;;20.20;;
77814;SDS011;67002;52.124;21.210;2023-04-25T12:25:33;34.50;;;20.70;;
77814;SDS011;67002;52.124;21.210;2023-04-25T12:28:52;36.50;;;19.70;;
77814;SDS011;67002;52.124;21.210;2023-04-25T12:32:28;29.90;;;17.10;;
77814;SDS011;67002;52.124;21.210;2023-04-25T12:36:14;27.30;;;15.30;;
77814;SDS011;67002;52.124;21.210;2023-04-25T12:39:51;29.30;;;16.00;;
77814;SDS011;67002;52.124;21.210;2023-04-25T12:43:30;32.70;;;18.20;;
77814;SDS011;67002;52.124;21.210;2023-04-25T12:47:24;27.90;;;16.40;;
77814;SDS011;67002;52.124;21.210;2023-04-25T12:51:05;28.50;;;18.80;;
77814;SDS011;67002;52.124;21.210;2023-04-25T12:54:22;28.50;;;19.20;;
77814;SDS011;67002;52.124;21.210;2023-04-25T12:58:17;26.80;;;15.00;;
77814;SDS011;67002;52.124;21.210;2023-04-25T13:01:56;26.00;;;16.40;;
77814;SDS011;67002;52.124;21.210;2023-04-25T13:05:23;26.90;;;14.20;;
77814;SDS011;67002;52.124;21.210;2023-04-25T13:08:51;28.50;;;15.30;;
77814;SDS011;67002;52.124;21.210;2023-04-25T13:12:46;23.70;;;12.40;;
77814;SDS011;67002;52.124;21.210;2023-04-25T13:16:12;27.80;;;14.70;;
77814;SDS011;67002;52.124;21.210;2023-04-25T13:19:57;23.50;;;13.20;;
77814;SDS011;67002;52.124;21.210;2023-04-25T13:24:11;18.40;;;10.00;;
77814;SDS011;67002;52.124;21.210;2023-04-25T13:27:19;24.50;;;13.40;;
77814;SDS011;67002;52.124;21.210;2023-04-25T13:31:05;18.30;;;12.50;;
77814;SDS011;67002;52.124;21.210;2023-04-25T13:34:52;24.90;;;14.30;;
77814;SDS011;67002;52.124;21.210;2023-04-25T13:38:39;17.70;;;11.00;;
77814;SDS011;67002;52.124;21.210;2023-04-25T13:41:51;25.80;;;12.40;;
77814;SDS011;67002;52.124;21.210;2023-04-25T13:45:38;18.00;;;10.50;;
77814;SDS011;67002;52.124;21.210;2023-04-25T13:49:05;13.00;;;8.30;;
77814;SDS011;67002;52.124;21.210;2023-04-25T13:52:52;11.20;;;6.70;;
77814;SDS011;67002;52.124;21.210;2023-04-25T13:56:36;15.80;;;7.90;;
77814;SDS011;67002;52.124;21.210;2023-04-25T14:00:41;14.90;;;8.20;;
77814;SDS011;67002;52.124;21.210;2023-04-25T14:04:21;13.70;;;7.90;;
77814;SDS011;67002;52.124;21.210;2023-04-25T14:08:00;10.80;;;6.30;;
77814;SDS011;67002;52.124;21.210;2023-04-25T14:11:34;13.30;;;7.20;;
77814;SDS011;67002;52.124;21.210;2023-04-25T14:15:14;15.40;;;7.80;;
77814;SDS011;67002;52.124;21.210;2023-04-25T14:18:51;13.40;;;8.50;;
77814;SDS011;67002;52.124;21.210;2023-04-25T14:22:31;14.20;;;7.80;;
77814;SDS011;67002;52.124;21.210;2023-04-25T14:25:48;15.00;;;9.20;;
77814;SDS011;67002;52.124;21.210;2023-04-25T14:29:45;14.30;;;9.10;;
77814;SDS011;67002;52.124;21.210;2023-04-25T14:33:22;16.50;;;8.90;;
77814;SDS011;67002;52.124;21.210;2023-04-25T14:36:58;17.60;;;9.40;;
77814;SDS011;67002;52.124;21.210;2023-04-25T14:40:36;18.10;;;10.50;;
77814;SDS011;67002;52.124;21.210;2023-04-25T14:43:54;15.40;;;8.70;;
77814;SDS011;67002;52.124;21.210;2023-04-25T14:47:39;17.00;;;9.60;;
77814;SDS011;67002;52.124;21.210;2023-04-25T14:51:27;21.70;;;10.00;;
77814;SDS011;67002;52.124;21.210;2023-04-25T14:54:53;16.10;;;9.30;;
77814;SDS011;67002;52.124;21.210;2023-04-25T14:58:38;15.40;;;9.20;;
77814;SDS011;67002;52.124;21.210;2023-04-25T15:02:25;16.80;;;9.50;;
77814;SDS011;67002;52.124;21.210;2023-04-25T15:05:54;15.80;;;9.10;;
77814;SDS011;67002;52.124;21.210;2023-04-25T15:09:51;19.40;;;10.00;;
77814;SDS011;67002;52.124;21.210;2023-04-25T15:13:35;19.00;;;10.60;;
77814;SDS011;67002;52.124;21.210;2023-04-25T15:17:05;23.70;;;9.50;;
77814;SDS011;67002;52.124;21.210;2023-04-25T15:20:24;24.90;;;12.20;;
77814;SDS011;67002;52.124;21.210;2023-04-25T15:23:59;32.40;;;19.40;;
77814;SDS011;67002;52.124;21.210;2023-04-25T15:28:01;25.60;;;17.10;;
77814;SDS011;67002;52.124;21.210;2023-04-25T15:31:22;31.10;;;20.70;;
77814;SDS011;67002;52.124;21.210;2023-04-25T15:35:02;26.70;;;16.60;;
77814;SDS011;67002;52.124;21.210;2023-04-25T15:38:37;26.60;;;13.50;;
77814;SDS011;67002;52.124;21.210;2023-04-25T15:42:23;19.90;;;13.00;;
77814;SDS011;67002;52.124;21.210;2023-04-25T15:46:10;28.90;;;14.10;;
77814;SDS011;67002;52.124;21.210;2023-04-25T15:49:48;21.20;;;12.00;;
77814;SDS011;67002;52.124;21.210;2023-04-25T15:53:25;21.10;;;12.20;;
77814;SDS011;67002;52.124;21.210;2023-04-25T15:56:45;20.00;;;11.40;;
77814;SDS011;67002;52.124;21.210;2023-04-25T16:00:30;21.50;;;11.60;;
77814;SDS011;67002;52.124;21.210;2023-04-25T16:04:05;25.20;;;11.90;;
77814;SDS011;67002;52.124;21.210;2023-04-25T16:07:51;23.40;;;13.70;;
77814;SDS011;67002;52.124;21.210;2023-04-25T16:11:49;22.20;;;13.30;;
77814;SDS011;67002;52.124;21.210;2023-04-25T16:15:05;20.80;;;12.80;;
77814;SDS011;67002;52.124;21.210;2023-04-25T16:18:49;29.60;;;14.50;;
77814;SDS011;67002;52.124;21.210;2023-04-25T16:22:34;28.10;;;15.10;;
77814;SDS011;67002;52.124;21.210;2023-04-25T16:26:10;23.60;;;13.90;;
77814;SDS011;67002;52.124;21.210;2023-04-25T16:29:54;27.40;;;13.90;;
77814;SDS011;67002;52.124;21.210;2023-04-25T16:33:34;29.30;;;15.60;;
77814;SDS011;67002;52.124;21.210;2023-04-25T16:37:18;22.20;;;13.10;;
77814;SDS011;67002;52.124;21.210;2023-04-25T16:41:16;29.60;;;13.80;;
77814;SDS011;67002;52.124;21.210;2023-04-25T16:44:24;17.70;;;11.50;;
77814;SDS011;67002;52.124;21.210;2023-04-25T16:48:27;18.00;;;10.90;;
77814;SDS011;67002;52.124;21.210;2023-04-25T16:52:07;24.40;;;11.80;;
77814;SDS011;67002;52.124;21.210;2023-04-25T16:55:43;22.20;;;13.20;;
77814;SDS011;67002;52.124;21.210;2023-04-25T16:59:03;21.90;;;10.20;;
77814;SDS011;67002;52.124;21.210;2023-04-25T17:02:40;23.50;;;11.70;;
77814;SDS011;67002;52.124;21.210;2023-04-25T17:06:40;24.30;;;11.80;;
77814;SDS011;67002;52.124;21.210;2023-04-25T17:09:54;20.50;;;10.20;;
77814;SDS011;67002;52.124;21.210;2023-04-25T17:13:49;22.20;;;12.30;;
77814;SDS011;67002;52.124;21.210;2023-04-25T17:17:17;16.70;;;9.50;;
77814;SDS011;67002;52.124;21.210;2023-04-25T17:20:53;24.90;;;11.70;;
77814;SDS011;67002;52.124;21.210;2023-04-25T17:25:00;21.30;;;10.30;;
77814;SDS011;67002;52.124;21.210;2023-04-25T17:28:16;19.80;;;10.30;;
77814;SDS011;67002;52.124;21.210;2023-04-25T17:31:51;21.00;;;10.90;;
77814;SDS011;67002;52.124;21.210;2023-04-25T17:35:38;20.80;;;11.80;;
77814;SDS011;67002;52.124;21.210;2023-04-25T17:39:13;25.90;;;12.70;;
77814;SDS011;67002;52.124;21.210;2023-04-25T17:42:58;25.00;;;12.40;;
77814;SDS011;67002;52.124;21.210;2023-04-25T17:46:46;24.60;;;13.00;;
77814;SDS011;67002;52.124;21.210;2023-04-25T17:50:22;24.10;;;11.80;;
77814;SDS011;67002;52.124;21.210;2023-04-25T17:54:10;24.30;;;12.00;;
77814;SDS011;67002;52.124;21.210;2023-04-25T17:57:39;26.90;;;14.20;;
77814;SDS011;67002;52.124;21.210;2023-04-25T18:01:05;23.30;;;12.60;;
77814;SDS011;67002;52.124;21.210;2023-04-25T18:04:49;27.00;;;12.50;;
77814;SDS011;67002;52.124;21.210;2023-04-25T18:08:27;24.70;;;12.20;;
77814;SDS011;67002;52.124;21.210;2023-04-25T18:12:05;23.70;;;12.50;;
77814;SDS011;67002;52.124;21.210;2023-04-25T18:16:12;19.20;;;11.80;;
77814;SDS011;67002;52.124;21.210;2023-04-25T18:19:28;26.10;;;13.80;;
77814;SDS011;67002;52.124;21.210;2023-04-25T18:22:56;20.40;;;11.60;;
77814;SDS011;67002;52.124;21.210;2023-04-25T18:26:42;19.20;;;10.00;;
77814;SDS011;67002;52.124;21.210;2023-04-25T18:30:28;21.70;;;11.60;;
77814;SDS011;67002;52.124;21.210;2023-04-25T18:34:00;20.20;;;10.60;;
77814;SDS011;67002;52.124;21.210;2023-04-25T18:37:53;21.00;;;11.60;;
77814;SDS011;67002;52.124;21.210;2023-04-25T18:41:20;23.00;;;11.20;;
77814;SDS011;67002;52.124;21.210;2023-04-25T18:44:51;21.80;;;11.30;;
77814;SDS011;67002;52.124;21.210;2023-04-25T18:48:26;24.50;;;11.60;;
77814;SDS011;67002;52.124;21.210;2023-04-25T18:52:12;27.40;;;11.40;;
77814;SDS011;67002;52.124;21.210;2023-04-25T18:55:51;22.80;;;12.10;;
77814;SDS011;67002;52.124;21.210;2023-04-25T18:59:25;23.00;;;11.80;;
77814;SDS011;67002;52.124;21.210;2023-04-25T19:03:11;26.50;;;13.10;;
77814;SDS011;67002;52.124;21.210;2023-04-25T19:06:48;21.30;;;11.30;;
77814;SDS011;67002;52.124;21.210;2023-04-25T19:10:25;27.60;;;13.00;;
77814;SDS011;67002;52.124;21.210;2023-04-25T19:14:01;25.70;;;12.40;;
77814;SDS011;67002;52.124;21.210;2023-04-25T19:18:00;22.20;;;12.50;;
77814;SDS011;67002;52.124;21.210;2023-04-25T19:21:24;20.40;;;10.70;;
77814;SDS011;67002;52.124;21.210;2023-04-25T19:25:01;26.60;;;13.50;;
77814;SDS011;67002;52.124;21.210;2023-04-25T19:28:55;26.30;;;12.90;;
77814;SDS011;67002;52.124;21.210;2023-04-25T19:32:17;26.00;;;12.40;;
77814;SDS011;67002;52.124;21.210;2023-04-25T19:35:54;27.70;;;12.80;;
77814;SDS011;67002;52.124;21.210;2023-04-25T19:39:33;31.80;;;13.70;;
77814;SDS011;67002;52.124;21.210;2023-04-25T19:43:18;29.00;;;13.40;;
77814;SDS011;67002;52.124;21.210;2023-04-25T19:47:06;29.20;;;12.70;;
77814;SDS011;67002;52.124;21.210;2023-04-25T19:50:42;33.20;;;13.50;;
77814;SDS011;67002;52.124;21.210;2023-04-25T19:54:06;26.20;;;11.90;;
77814;SDS011;67002;52.124;21.210;2023-04-25T19:57:58;26.10;;;12.90;;
77814;SDS011;67002;52.124;21.210;2023-04-25T20:01:17;29.70;;;12.90;;
77814;SDS011;67002;52.124;21.210;2023-04-25T20:05:01;26.10;;;12.80;;
77814;SDS011;67002;52.124;21.210;2023-04-25T20:08:46;27.00;;;12.20;;
77814;SDS011;67002;52.124;21.210;2023-04-25T20:12:32;28.80;;;13.20;;
77814;SDS011;67002;52.124;21.210;2023-04-25T20:16:09;30.30;;;13.60;;
77814;SDS011;67002;52.124;21.210;2023-04-25T20:19:45;35.80;;;14.80;;
77814;SDS011;67002;52.124;21.210;2023-04-25T20:23:38;33.30;;;15.50;;
77814;SDS011;67002;52.124;21.210;2023-04-25T20:27:06;35.30;;;17.00;;
77814;SDS011;67002;52.124;21.210;2023-04-25T20:30:49;38.90;;;18.20;;
77814;SDS011;67002;52.124;21.210;2023-04-25T20:34:35;39.40;;;18.00;;
77814;SDS011;67002;52.124;21.210;2023-04-25T20:38:12;41.90;;;21.00;;
77814;SDS011;67002;52.124;21.210;2023-04-25T20:41:50;49.40;;;24.00;;
77814;SDS011;67002;52.124;21.210;2023-04-25T20:45:25;41.40;;;20.60;;
77814;SDS011;67002;52.124;21.210;2023-04-25T20:49:14;42.40;;;19.80;;
77814;SDS011;67002;52.124;21.210;2023-04-25T20:52:50;36.20;;;17.50;;
77814;SDS011;67002;52.124;21.210;2023-04-25T20:56:38;34.80;;;15.00;;
77814;SDS011;67002;52.124;21.210;2023-04-25T21:00:08;29.00;;;16.20;;
77814;SDS011;67002;52.124;21.210;2023-04-25T21:03:45;34.20;;;14.90;;